createdAt,value
2023-05-12T00:01:47.556Z,100286.81
2023-05-12T00:04:14.300Z,100279.50
2023-05-12T00:06:41.105Z,100283.31
2023-05-12T00:09:07.824Z,100279.81
2023-05-12T00:11:34.530Z,100278.72
2023-05-12T00:14:01.576Z,100277.09
2023-05-12T00:16:28.602Z,100279.00
2023-05-12T00:18:55.466Z,100278.19
2023-05-12T00:21:22.263Z,100281.94
2023-05-12T00:23:48.914Z,100281.69
2023-05-12T00:26:17.413Z,100284.38
2023-05-12T00:28:45.228Z,100279.81
2023-05-12T00:31:11.934Z,100277.13
2023-05-12T00:33:38.780Z,100269.25
2023-05-12T00:36:06.365Z,100274.66
2023-05-12T00:38:34.402Z,100265.19
2023-05-12T00:41:01.636Z,100270.06
2023-05-12T00:43:28.374Z,100267.13
2023-05-12T00:45:55.253Z,100270.88
2023-05-12T00:48:22.057Z,100270.31
2023-05-12T00:50:49.449Z,100269.25
2023-05-12T00:53:16.287Z,100264.16
2023-05-12T00:55:43.888Z,100256.31
2023-05-12T00:58:10.819Z,100268.72
2023-05-12T01:00:37.702Z,100266.28
2023-05-12T01:03:04.876Z,100262.19
2023-05-12T01:05:39.063Z,100262.47
2023-05-12T01:08:06.288Z,100264.88
2023-05-12T01:10:33.082Z,100261.44
2023-05-12T01:12:59.984Z,100248.44
2023-05-12T01:15:26.814Z,100242.22
2023-05-12T01:18:02.102Z,100248.97
2023-05-12T01:20:31.882Z,100247.03
2023-05-12T01:22:59.792Z,100245.69
2023-05-12T01:25:32.080Z,100245.19
2023-05-12T01:28:02.405Z,100247.09
2023-05-12T01:30:32.140Z,100252.50
2023-05-12T01:32:59.260Z,100247.59
2023-05-12T01:35:26.112Z,100258.41
2023-05-12T01:38:00.580Z,100245.72
2023-05-12T01:40:27.353Z,100254.63
2023-05-12T01:42:55.572Z,100247.06
2023-05-12T01:45:22.716Z,100251.38
2023-05-12T01:47:51.301Z,100254.09
2023-05-12T01:50:18.283Z,100247.09
2023-05-12T01:52:46.235Z,100253.00
2023-05-12T01:55:16.208Z,100257.88
2023-05-12T01:57:51.076Z,100257.88
2023-05-12T02:00:18.342Z,100255.97
2023-05-12T02:02:53.522Z,100256.00
2023-05-12T02:05:20.656Z,100264.13
2023-05-12T02:07:49.444Z,100258.13
2023-05-12T02:10:17.841Z,100259.25
2023-05-12T02:12:45.609Z,100257.59
2023-05-12T02:15:12.745Z,100261.38
2023-05-12T02:17:44.213Z,100259.47
2023-05-12T02:20:12.282Z,100263.00
2023-05-12T02:22:39.153Z,100258.66
2023-05-12T02:25:06.565Z,100257.81
2023-05-12T02:27:34.405Z,100253.81
2023-05-12T02:30:02.081Z,100260.28
2023-05-12T02:32:33.835Z,100261.34
2023-05-12T02:35:01.086Z,100260.28
2023-05-12T02:37:31.005Z,100267.06
2023-05-12T02:39:57.776Z,100260.56
2023-05-12T02:42:28.708Z,100257.09
2023-05-12T02:44:55.870Z,100251.13
2023-05-12T02:47:22.890Z,100256.25
2023-05-12T02:49:50.584Z,100254.63
2023-05-12T02:52:17.439Z,100248.41
2023-05-12T02:54:44.116Z,100252.19
2023-05-12T02:57:11.628Z,100246.44
2023-05-12T02:59:38.339Z,100254.84
2023-05-12T03:02:05.650Z,100249.19
2023-05-12T03:04:33.078Z,100253.28
2023-05-12T03:06:59.865Z,100251.09
2023-05-12T03:09:26.641Z,100252.97
2023-05-12T03:11:53.406Z,100254.03
2023-05-12T03:14:20.545Z,100255.66
2023-05-12T03:16:47.474Z,100262.41
2023-05-12T03:19:14.341Z,100252.72
2023-05-12T03:21:41.028Z,100251.63
2023-05-12T03:24:08.288Z,100252.16
2023-05-12T03:26:34.995Z,100252.19
2023-05-12T03:29:02.049Z,100255.66
2023-05-12T03:31:28.779Z,100250.00
2023-05-12T03:33:55.513Z,100249.19
2023-05-12T03:36:22.557Z,100248.66
2023-05-12T03:38:49.410Z,100250.75
2023-05-12T03:41:17.077Z,100255.66
2023-05-12T03:43:43.808Z,100259.19
2023-05-12T03:46:10.619Z,100256.22
2023-05-12T03:48:37.370Z,100257.56
2023-05-12T03:51:04.322Z,100256.75
2023-05-12T03:53:31.184Z,100255.13
2023-05-12T03:55:57.901Z,100255.13
2023-05-12T03:58:24.671Z,100255.66
2023-05-12T04:00:51.464Z,100253.78
2023-05-12T04:03:18.151Z,100252.16
2023-05-12T04:05:44.964Z,100255.13
2023-05-12T04:08:11.764Z,100245.34
2023-05-12T04:10:41.949Z,100256.75
2023-05-12T04:13:08.757Z,100258.34
2023-05-12T04:15:35.772Z,100261.59
2023-05-12T04:18:03.840Z,100261.06
2023-05-12T04:20:30.558Z,100259.47
2023-05-12T04:22:57.252Z,100265.94
2023-05-12T04:25:24.068Z,100263.50
2023-05-12T04:27:50.935Z,100265.38
2023-05-12T04:30:17.743Z,100268.13
2023-05-12T04:32:45.163Z,100271.91
2023-05-12T04:35:11.883Z,100263.22
2023-05-12T04:37:39.141Z,100271.88
2023-05-12T04:40:07.995Z,100265.94
2023-05-12T04:42:35.247Z,100261.59
2023-05-12T04:45:02.009Z,100262.72
2023-05-12T04:47:32.453Z,100269.97
2023-05-12T04:49:59.242Z,100270.56
2023-05-12T04:52:25.961Z,100287.31
2023-05-12T04:54:53.320Z,100279.41
2023-05-12T04:57:20.005Z,100279.97
2023-05-12T04:59:46.960Z,100279.16
2023-05-12T05:02:13.925Z,100280.78
2023-05-12T05:04:40.882Z,100276.19
2023-05-12T05:07:08.548Z,100285.41
2023-05-12T05:09:36.464Z,100287.88
2023-05-12T05:12:03.760Z,100286.81
2023-05-12T05:14:32.253Z,100281.91
2023-05-12T05:17:00.027Z,100278.94
2023-05-12T05:19:39.097Z,100287.03
2023-05-12T05:22:13.731Z,100287.84
2023-05-12T05:24:40.433Z,100291.94
2023-05-12T05:27:07.137Z,100293.56
2023-05-12T05:29:33.810Z,100291.94
2023-05-12T05:32:00.653Z,100292.25
2023-05-12T05:34:27.384Z,100294.97
2023-05-12T05:36:55.583Z,100300.63
2023-05-12T05:39:22.837Z,100302.50
2023-05-12T05:41:49.635Z,100302.78
2023-05-12T05:44:16.368Z,100305.47
2023-05-12T05:46:43.261Z,100299.03
2023-05-12T05:49:10.076Z,100303.63
2023-05-12T05:51:36.890Z,100302.28
2023-05-12T05:54:04.300Z,100301.75
2023-05-12T05:56:32.715Z,100303.88
2023-05-12T05:59:03.056Z,100309.00
2023-05-12T06:01:30.595Z,100314.16
2023-05-12T06:03:59.564Z,100313.34
2023-05-12T06:06:26.410Z,100309.53
2023-05-12T06:08:55.903Z,100313.28
2023-05-12T06:11:22.909Z,100311.69
2023-05-12T06:13:49.821Z,100322.53
2023-05-12T06:16:16.591Z,100328.19
2023-05-12T06:18:43.452Z,100316.56
2023-05-12T06:21:10.210Z,100324.16
2023-05-12T06:23:36.939Z,100327.66
2023-05-12T06:26:04.047Z,100327.41
2023-05-12T06:28:30.692Z,100333.16
2023-05-12T06:30:59.375Z,100332.00
2023-05-12T06:33:26.092Z,100331.47
2023-05-12T06:35:52.788Z,100334.22
2023-05-12T06:38:19.427Z,100331.22
2023-05-12T06:40:46.152Z,100335.84
2023-05-12T06:43:13.143Z,100335.88
2023-05-12T06:45:44.545Z,100341.28
2023-05-12T06:48:11.896Z,100348.00
2023-05-12T06:50:38.723Z,100335.84
2023-05-12T06:53:06.354Z,100338.84
2023-05-12T06:55:33.095Z,100339.66
2023-05-12T06:57:59.922Z,100346.13
2023-05-12T07:00:26.747Z,100346.69
2023-05-12T07:02:53.491Z,100349.38
2023-05-12T07:05:21.263Z,100346.94
2023-05-12T07:07:48.258Z,100347.50
2023-05-12T07:10:15.243Z,100352.38
2023-05-12T07:12:42.071Z,100356.16
2023-05-12T07:15:09.682Z,100357.25
2023-05-12T07:17:36.640Z,100350.47
2023-05-12T07:20:04.927Z,100356.44
2023-05-12T07:22:32.647Z,100355.91
2023-05-12T07:24:59.760Z,100354.00
2023-05-12T07:27:26.876Z,100354.28
2023-05-12T07:29:53.636Z,100351.56
2023-05-12T07:32:20.416Z,100351.84
2023-05-12T07:34:47.144Z,100352.09
2023-05-12T07:37:13.846Z,100353.47
2023-05-12T07:39:40.521Z,100358.59
2023-05-12T07:42:07.406Z,100353.19
2023-05-12T07:44:34.203Z,100358.59
2023-05-12T07:47:01.134Z,100354.53
2023-05-12T07:49:27.886Z,100349.41
2023-05-12T07:51:54.851Z,100354.81
2023-05-12T07:54:22.226Z,100343.97
2023-05-12T07:56:48.857Z,100348.88
2023-05-12T07:59:15.600Z,100350.47
2023-05-12T08:01:42.935Z,100343.44
2023-05-12T08:04:09.798Z,100352.38
2023-05-12T08:06:36.554Z,100342.91
2023-05-12T08:09:03.288Z,100349.41
2023-05-12T08:11:29.977Z,100350.47
2023-05-12T08:13:56.665Z,100354.53
2023-05-12T08:16:23.432Z,100349.69
2023-05-12T08:18:50.096Z,100356.97
2023-05-12T08:21:16.726Z,100355.59
2023-05-12T08:23:44.714Z,100357.53
2023-05-12T08:26:11.454Z,100359.69
2023-05-12T08:28:38.148Z,100353.69
2023-05-12T08:31:05.237Z,100344.78
2023-05-12T08:33:34.699Z,100345.59
2023-05-12T08:36:01.947Z,100355.31
2023-05-12T08:38:29.496Z,100358.81
2023-05-12T08:41:12.615Z,100362.28
2023-05-12T08:44:06.431Z,100364.72
2023-05-12T08:46:33.304Z,100354.75
2023-05-12T08:49:02.486Z,100367.13
2023-05-12T08:51:36.755Z,100362.22
2023-05-12T08:54:04.430Z,100367.31
2023-05-12T08:59:03.384Z,100358.13
2023-05-12T09:01:30.566Z,100362.47
2023-05-12T09:03:57.438Z,100362.97
2023-05-12T09:06:24.262Z,100370.03
2023-05-12T09:08:51.317Z,100361.06
2023-05-12T09:11:20.022Z,100364.34
2023-05-12T09:14:00.328Z,100373.56
2023-05-12T09:16:30.329Z,100377.94
2023-05-12T09:18:58.925Z,100360.09
2023-05-12T09:21:26.889Z,100371.41
2023-05-12T09:24:10.183Z,100368.75
2023-05-12T09:26:52.360Z,100364.44
2023-05-12T09:29:30.007Z,100365.47
2023-05-12T09:31:59.449Z,100366.84
2023-05-12T09:34:38.567Z,100368.72
2023-05-12T09:37:07.709Z,100355.78
2023-05-12T09:39:35.144Z,100363.91
2023-05-12T09:42:02.270Z,100361.19
2023-05-12T09:44:29.999Z,100362.50
2023-05-12T09:47:06.212Z,100362.97
2023-05-12T09:49:32.944Z,100365.47
2023-05-12T09:51:59.756Z,100364.06
2023-05-12T09:54:31.064Z,100365.41
2023-05-12T09:57:00.378Z,100367.53
2023-05-12T09:59:31.406Z,100363.25
2023-05-12T10:02:00.789Z,100362.59
2023-05-12T10:04:29.995Z,100364.88
2023-05-12T10:06:58.408Z,100365.44
2023-05-12T10:09:36.080Z,100367.97
2023-05-12T10:12:04.400Z,100367.97
2023-05-12T10:14:31.744Z,100363.31
2023-05-12T10:16:59.830Z,100366.88
2023-05-12T10:19:28.481Z,100370.59
2023-05-12T10:21:57.169Z,100368.44
2023-05-12T10:24:27.576Z,100366.81
2023-05-12T10:26:56.536Z,100368.69
2023-05-12T10:29:29.967Z,100362.91
2023-05-12T10:31:57.654Z,100363.94
2023-05-12T10:34:41.743Z,100373.13
2023-05-12T10:37:13.278Z,100356.50
2023-05-12T10:39:50.975Z,100360.72
2023-05-12T10:42:25.816Z,100356.44
2023-05-12T10:44:53.953Z,100366.13
2023-05-12T10:47:36.593Z,100363.00
2023-05-12T10:50:03.465Z,100372.25
2023-05-12T10:52:32.125Z,100368.78
2023-05-12T10:55:03.893Z,100371.16
2023-05-12T10:57:33.440Z,100364.19
2023-05-12T11:00:02.312Z,100362.84
2023-05-12T11:02:36.819Z,100362.28
2023-05-12T11:05:14.732Z,100365.69
2023-05-12T11:07:48.256Z,100362.13
2023-05-12T11:10:15.927Z,100365.97
2023-05-12T11:12:44.510Z,100357.94
2023-05-12T11:15:12.208Z,100355.78
2023-05-12T11:17:42.112Z,100362.03
2023-05-12T11:20:09.928Z,100356.81
2023-05-12T11:22:37.218Z,100358.94
2023-05-12T11:25:11.271Z,100360.72
2023-05-12T11:27:44.668Z,100361.31
2023-05-12T11:30:11.551Z,100360.88
2023-05-12T11:32:38.593Z,100357.22
2023-05-12T11:35:19.600Z,100363.38
2023-05-12T11:37:46.962Z,100367.13
2023-05-12T11:40:18.425Z,100363.88
2023-05-12T11:42:51.543Z,100365.66
2023-05-12T11:45:23.174Z,100364.25
2023-05-12T11:47:50.178Z,100362.56
2023-05-12T11:50:22.479Z,100365.91
2023-05-12T11:52:49.804Z,100369.94
2023-05-12T11:55:22.330Z,100367.19
2023-05-12T11:58:03.259Z,100373.72
2023-05-12T12:00:35.284Z,100374.75
2023-05-12T12:03:09.561Z,100372.78
2023-05-12T12:05:36.602Z,100386.22
2023-05-12T12:08:13.513Z,100372.47
2023-05-12T12:10:45.142Z,100378.88
2023-05-12T12:13:13.009Z,100386.66
2023-05-12T12:15:39.770Z,100380.94
2023-05-12T12:18:06.697Z,100385.38
2023-05-12T12:20:33.439Z,100378.38
2023-05-12T12:23:00.158Z,100380.59
2023-05-12T12:25:26.925Z,100387.47
2023-05-12T12:27:53.649Z,100384.63
2023-05-12T12:30:20.410Z,100377.59
2023-05-12T12:32:47.582Z,100384.16
2023-05-12T12:35:14.336Z,100385.16
2023-05-12T12:37:41.584Z,100384.34
2023-05-12T12:40:09.870Z,100374.34
2023-05-12T12:42:39.566Z,100384.31
2023-05-12T12:45:10.130Z,100387.78
2023-05-12T12:47:37.919Z,100380.09
2023-05-12T12:50:09.550Z,100393.69
2023-05-12T12:52:38.202Z,100387.00
2023-05-12T12:55:06.716Z,100391.34
2023-05-12T12:57:33.420Z,100384.00
2023-05-12T13:00:00.102Z,100398.34
2023-05-12T13:02:27.116Z,100404.00
2023-05-12T13:04:53.998Z,100387.38
2023-05-12T13:07:20.880Z,100398.41
2023-05-12T13:09:47.642Z,100398.78
2023-05-12T13:12:14.659Z,100400.13
2023-05-12T13:14:41.293Z,100393.13
2023-05-12T13:17:08.297Z,100385.91
2023-05-12T13:19:37.753Z,100397.13
2023-05-12T13:22:05.826Z,100397.75
2023-05-12T13:24:32.935Z,100404.66
2023-05-12T13:26:59.697Z,100405.25
2023-05-12T13:29:26.628Z,100393.88
2023-05-12T13:31:54.202Z,100392.25
2023-05-12T13:34:21.292Z,100405.34
2023-05-12T13:36:48.450Z,100401.03
2023-05-12T13:39:15.760Z,100404.31
2023-05-12T13:41:43.093Z,100399.34
2023-05-12T13:44:10.920Z,100406.66
2023-05-12T13:46:37.723Z,100406.16
2023-05-12T13:49:04.430Z,100406.22
2023-05-12T13:51:32.340Z,100406.09
2023-05-12T13:53:59.163Z,100412.75
2023-05-12T13:56:25.897Z,100415.84
2023-05-12T13:58:52.679Z,100411.09
2023-05-12T14:01:19.311Z,100408.13
2023-05-12T14:03:46.065Z,100411.84
2023-05-12T14:06:13.964Z,100413.75
2023-05-12T14:08:42.332Z,100410.53
2023-05-12T14:11:09.952Z,100418.88
2023-05-12T14:13:36.672Z,100424.09
2023-05-12T14:16:03.594Z,100424.91
2023-05-12T14:18:30.471Z,100428.81
2023-05-12T14:20:57.723Z,100423.50
2023-05-12T14:23:24.465Z,100428.94
2023-05-12T14:25:51.607Z,100417.84
2023-05-12T14:28:18.429Z,100426.00
2023-05-12T14:30:45.866Z,100425.75
2023-05-12T14:33:12.630Z,100418.09
2023-05-12T14:35:39.352Z,100424.09
2023-05-12T14:38:06.133Z,100425.75
2023-05-12T14:40:32.873Z,100427.78
2023-05-12T14:43:00.027Z,100423.97
2023-05-12T14:45:26.918Z,100421.31
2023-05-12T14:47:53.757Z,100429.75
2023-05-12T14:50:20.693Z,100420.72
2023-05-12T14:52:47.576Z,100434.25
2023-05-12T14:55:16.908Z,100425.69
2023-05-12T14:57:44.553Z,100423.84
2023-05-12T15:00:13.906Z,100421.22
2023-05-12T15:02:43.060Z,100417.94
2023-05-12T15:05:11.215Z,100427.97
2023-05-12T15:07:38.280Z,100424.69
2023-05-12T15:10:05.922Z,100422.69
2023-05-12T15:12:33.412Z,100430.53
2023-05-12T15:15:02.132Z,100428.63
2023-05-12T15:17:35.163Z,100429.44
2023-05-12T15:20:02.144Z,100431.16
2023-05-12T15:22:32.862Z,100429.44
2023-05-12T15:25:00.209Z,100434.28
2023-05-12T15:27:27.095Z,100434.75
2023-05-12T15:29:53.901Z,100441.66
2023-05-12T15:32:20.659Z,100440.44
2023-05-12T15:34:47.482Z,100435.31
2023-05-12T15:37:14.487Z,100432.66
2023-05-12T15:39:41.220Z,100441.81
2023-05-12T15:42:08.551Z,100446.72
2023-05-12T15:44:35.316Z,100440.00
2023-05-12T15:47:02.084Z,100433.19
2023-05-12T15:49:28.859Z,100446.56
2023-05-12T15:51:55.465Z,100442.53
2023-05-12T15:54:22.134Z,100440.56
2023-05-12T15:56:50.060Z,100436.16
2023-05-12T15:59:16.712Z,100441.16
2023-05-12T16:01:43.389Z,100443.06
2023-05-12T16:04:10.262Z,100441.84
2023-05-12T16:06:36.922Z,100437.75
2023-05-12T16:09:04.095Z,100440.41
2023-05-12T16:11:30.762Z,100445.44
2023-05-12T16:13:57.685Z,100450.38
2023-05-12T16:16:24.442Z,100445.63
2023-05-12T16:18:51.223Z,100445.84
2023-05-12T16:21:19.936Z,100442.78
2023-05-12T16:23:46.816Z,100449.06
2023-05-12T16:26:13.510Z,100446.47
2023-05-12T16:28:40.179Z,100465.22
2023-05-12T16:31:06.872Z,100454.78
2023-05-12T16:33:33.566Z,100455.50
2023-05-12T16:36:00.323Z,100451.50
2023-05-12T16:38:26.996Z,100456.63
2023-05-12T16:40:53.614Z,100450.66
2023-05-12T16:43:20.244Z,100460.13
2023-05-12T16:45:46.988Z,100454.41
2023-05-12T16:48:13.738Z,100455.59
2023-05-12T16:50:40.340Z,100455.22
2023-05-12T16:53:07.074Z,100457.34
2023-05-12T16:55:33.720Z,100463.31
2023-05-12T16:58:00.377Z,100461.88
2023-05-12T17:00:27.260Z,100463.28
2023-05-12T17:02:53.967Z,100470.31
2023-05-12T17:05:21.362Z,100468.59
2023-05-12T17:07:48.270Z,100474.19
2023-05-12T17:10:15.022Z,100472.84
2023-05-12T17:12:41.724Z,100469.16
2023-05-12T17:15:09.439Z,100467.53
2023-05-12T17:17:36.203Z,100476.25
2023-05-12T17:20:03.695Z,100474.66
2023-05-12T17:22:32.392Z,100479.09
2023-05-12T17:24:58.994Z,100478.63
2023-05-12T17:27:25.820Z,100482.44
2023-05-12T17:29:52.483Z,100477.13
2023-05-12T17:32:19.139Z,100481.94
2023-05-12T17:34:49.257Z,100480.41
2023-05-12T17:37:15.995Z,100481.47
2023-05-12T17:39:44.251Z,100482.03
2023-05-12T17:42:10.959Z,100475.47
2023-05-12T17:44:37.587Z,100478.28
2023-05-12T17:47:04.898Z,100480.47
2023-05-12T17:49:31.715Z,100478.09
2023-05-12T17:51:58.440Z,100472.91
2023-05-12T17:54:25.203Z,100479.44
2023-05-12T17:56:51.842Z,100487.53
2023-05-12T17:59:18.500Z,100487.56
2023-05-12T18:01:45.129Z,100492.13
2023-05-12T18:04:11.911Z,100488.09
2023-05-12T18:06:38.589Z,100499.00
2023-05-12T18:09:06.048Z,100494.72
2023-05-12T18:11:34.240Z,100499.84
2023-05-12T18:14:02.520Z,100500.06
2023-05-12T18:16:29.749Z,100497.44
2023-05-12T18:18:56.891Z,100502.06
2023-05-12T18:21:23.873Z,100503.81
2023-05-12T18:23:50.623Z,100499.81
2023-05-12T18:26:17.251Z,100498.00
2023-05-12T18:28:44.426Z,100503.06
2023-05-12T18:33:40.822Z,100510.38
2023-05-12T18:36:07.995Z,100506.94
2023-05-12T18:38:34.656Z,100506.16
2023-05-12T18:41:01.324Z,100499.91
2023-05-12T18:43:28.038Z,100501.03
2023-05-12T18:45:54.649Z,100497.50
2023-05-12T18:48:21.296Z,100500.22
2023-05-12T18:50:48.009Z,100506.78
2023-05-12T18:53:14.791Z,100504.06
2023-05-12T18:55:41.579Z,100507.22
2023-05-12T18:58:08.451Z,100520.84
2023-05-12T19:00:35.656Z,100523.28
2023-05-12T19:03:05.265Z,100528.41
2023-05-12T19:05:32.037Z,100530.88
2023-05-12T19:07:58.693Z,100527.91
2023-05-12T19:10:27.029Z,100540.41
2023-05-12T19:12:54.238Z,100537.13
2023-05-12T19:15:21.579Z,100540.13
2023-05-12T19:17:49.184Z,100543.53
2023-05-12T19:20:15.949Z,100548.75
2023-05-12T19:22:42.835Z,100550.38
2023-05-12T19:25:09.696Z,100559.81
2023-05-12T19:27:36.468Z,100567.66
2023-05-12T19:30:05.045Z,100562.88
2023-05-12T19:32:33.070Z,100571.53
2023-05-12T19:35:01.411Z,100573.69
2023-05-12T19:37:29.814Z,100575.63
2023-05-12T19:39:56.522Z,100578.84
2023-05-12T19:42:23.220Z,100587.59
2023-05-12T19:44:50.243Z,100589.44
2023-05-12T19:47:17.280Z,100591.38
2023-05-12T19:49:43.969Z,100592.50
2023-05-12T19:52:10.860Z,100587.84
2023-05-12T19:54:37.671Z,100585.44
2023-05-12T19:57:04.553Z,100576.75
2023-05-12T19:59:31.323Z,100591.94
2023-05-12T20:01:58.057Z,100588.69
2023-05-12T20:04:25.471Z,100592.50
2023-05-12T20:06:53.800Z,100598.50
2023-05-12T20:09:22.094Z,100599.03
2023-05-12T20:11:48.975Z,100598.47
2023-05-12T20:14:15.847Z,100599.53
2023-05-12T20:16:42.754Z,100606.06
2023-05-12T20:19:09.684Z,100607.94
2023-05-12T20:21:36.535Z,100602.56
2023-05-12T20:24:03.680Z,100603.06
2023-05-12T20:26:30.599Z,100608.50
2023-05-12T20:28:58.520Z,100594.97
2023-05-12T20:31:25.303Z,100596.00
2023-05-12T20:33:52.536Z,100603.34
2023-05-12T20:36:19.933Z,100605.25
2023-05-12T20:38:46.700Z,100601.72
2023-05-12T20:41:13.725Z,100607.97
2023-05-12T20:43:41.368Z,100606.91
2023-05-12T20:46:08.691Z,100605.53
2023-05-12T20:48:35.389Z,100609.66
2023-05-12T20:51:12.618Z,100605.03
2023-05-12T20:53:39.719Z,100607.47
2023-05-12T20:56:08.383Z,100611.00
2023-05-12T20:58:35.550Z,100611.50
2023-05-12T21:01:02.410Z,100612.84
2023-05-12T21:03:29.164Z,100616.13
2023-05-12T21:05:55.893Z,100623.16
2023-05-12T21:08:22.638Z,100623.44
2023-05-12T21:10:49.343Z,100621.81
2023-05-12T21:13:16.134Z,100625.34
2023-05-12T21:15:42.894Z,100619.13
2023-05-12T21:18:09.604Z,100622.94
2023-05-12T21:20:36.636Z,100622.38
2023-05-12T21:23:03.421Z,100629.13
2023-05-12T21:25:30.255Z,100630.97
2023-05-12T21:27:56.878Z,100630.97
2023-05-12T21:30:23.666Z,100641.78
2023-05-12T21:32:50.681Z,100637.81
2023-05-12T21:35:17.528Z,100641.88
2023-05-12T21:37:45.164Z,100639.44
2023-05-12T21:40:12.444Z,100643.47
2023-05-12T21:42:39.251Z,100642.41
2023-05-12T21:45:06.515Z,100639.16
2023-05-12T21:47:33.694Z,100646.69
2023-05-12T21:50:00.835Z,100643.66
2023-05-12T21:52:27.980Z,100648.03
2023-05-12T21:54:54.623Z,100639.91
2023-05-12T21:57:22.572Z,100640.25
2023-05-12T21:59:49.554Z,100639.44
2023-05-12T22:02:16.551Z,100644.03
2023-05-12T22:04:43.290Z,100640.53
2023-05-12T22:07:10.032Z,100646.75
2023-05-12T22:09:36.743Z,100644.59
2023-05-12T22:12:03.534Z,100645.69
2023-05-12T22:14:30.240Z,100641.88
2023-05-12T22:16:57.270Z,100648.94
2023-05-12T22:19:24.008Z,100654.34
2023-05-12T22:21:51.371Z,100655.97
2023-05-12T22:24:18.081Z,100647.81
2023-05-12T22:26:44.719Z,100659.72
2023-05-12T22:29:11.326Z,100660.53
2023-05-12T22:31:38.015Z,100657.84
2023-05-12T22:34:05.011Z,100658.66
2023-05-12T22:36:31.723Z,100652.69
2023-05-12T22:38:58.701Z,100656.75
2023-05-12T22:41:25.668Z,100658.41
2023-05-12T22:43:52.325Z,100658.84
2023-05-12T22:46:19.029Z,100651.56
2023-05-12T22:48:45.792Z,100647.22
2023-05-12T22:51:12.542Z,100642.66
2023-05-12T22:53:42.169Z,100642.88
2023-05-12T22:56:08.787Z,100640.94
2023-05-12T22:58:35.487Z,100637.16
2023-05-12T23:01:02.435Z,100640.13
2023-05-12T23:03:29.564Z,100638.78
2023-05-12T23:05:56.289Z,100634.41
2023-05-12T23:08:23.036Z,100633.59
2023-05-12T23:10:49.702Z,100633.88
2023-05-12T23:13:16.379Z,100628.72
2023-05-12T23:15:43.011Z,100635.72
2023-05-12T23:18:09.812Z,100630.84
2023-05-12T23:20:36.554Z,100638.97
2023-05-12T23:23:03.287Z,100633.81
2023-05-12T23:25:30.030Z,100633.00
2023-05-12T23:27:56.659Z,100636.78
2023-05-12T23:30:23.634Z,100633.00
2023-05-12T23:32:50.663Z,100638.16
2023-05-12T23:35:17.431Z,100627.59
2023-05-12T23:37:44.214Z,100633.00
2023-05-12T23:40:11.030Z,100629.81
2023-05-12T23:42:37.741Z,100628.66
2023-05-12T23:45:04.927Z,100630.00
2023-05-12T23:47:31.717Z,100633.50
2023-05-12T23:49:58.510Z,100615.63
2023-05-12T23:52:25.305Z,100631.81
2023-05-12T23:54:51.933Z,100626.94
2023-05-12T23:57:18.684Z,100625.81
2023-05-12T23:59:45.895Z,100626.31
